Time;durP1;ratioP1;P1;durP2;ratioP2;P2;SDS_P1;SDS_P2;PMS_P1;PMS_P2;Temp;Humidity;BMP_temperature;BMP_pressure;BME280_temperature;BME280_humidity;BME280_pressure;Samples;Min_cycle;Max_cycle;Signal;HPM_P1;HPM_P2
2022/12/01 00:00:41;;;;;;;24.75;12.68;;;2.50;99.90;;;;;;5007401;28;20632;-31
2022/12/01 00:03:07;;;;;;;25.00;11.98;;;2.50;99.90;;;;;;5005834;28;20423;-30
2022/12/01 00:05:33;;;;;;;25.45;12.18;;;2.50;99.90;;;;;;5007396;28;20041;-30
2022/12/01 00:07:59;;;;;;;26.35;12.07;;;2.60;99.90;;;;;;5005713;28;20030;-30
2022/12/01 00:10:25;;;;;;;22.27;10.32;;;2.50;99.90;;;;;;5006175;28;20037;-30
2022/12/01 00:12:59;;;;;;;24.58;11.60;;;2.50;99.90;;;;;;5007005;28;20033;-31
2022/12/01 00:15:27;;;;;;;24.85;12.13;;;2.50;99.90;;;;;;5003132;28;20034;-31
2022/12/01 00:17:52;;;;;;;29.08;13.52;;;2.50;99.90;;;;;;5005493;28;20037;-30
2022/12/01 00:20:18;;;;;;;27.60;12.98;;;2.50;99.90;;;;;;5003369;28;20041;-30
2022/12/01 00:22:45;;;;;;;24.30;11.18;;;2.50;99.90;;;;;;5005108;28;20488;-31
2022/12/01 00:25:13;;;;;;;28.83;12.88;;;2.50;99.90;;;;;;5002224;28;20446;-30
2022/12/01 00:27:39;;;;;;;25.58;12.95;;;2.50;99.90;;;;;;5010704;28;20136;-34
2022/12/01 00:30:07;;;;;;;27.15;12.80;;;2.50;99.90;;;;;;5004503;28;20118;-30
2022/12/01 00:32:33;;;;;;;;;;;2.50;99.90;;;;;;5011280;28;20030;-30
2022/12/01 00:34:58;;;;;;;26.35;11.05;;;2.50;99.90;;;;;;5011051;28;19920;-30
2022/12/01 00:37:24;;;;;;;23.55;11.40;;;2.50;99.90;;;;;;5008641;28;20037;-30
2022/12/01 00:39:50;;;;;;;26.38;11.40;;;2.50;99.90;;;;;;5012825;28;20040;-30
2022/12/01 00:42:19;;;;;;;28.45;11.55;;;2.50;99.90;;;;;;5007658;28;20029;-30
2022/12/01 00:44:46;;;;;;;26.45;12.20;;;2.50;99.90;;;;;;5004667;28;20476;-30
2022/12/01 00:47:12;;;;;;;30.58;13.38;;;2.50;99.90;;;;;;5012121;28;20116;-36
2022/12/01 00:49:37;;;;;;;30.23;12.60;;;2.50;99.90;;;;;;5008001;28;20105;-30
2022/12/01 00:52:03;;;;;;;32.10;12.07;;;2.50;99.90;;;;;;5009433;28;20030;-30
2022/12/01 00:54:31;;;;;;;30.10;14.00;;;2.50;99.90;;;;;;5003780;28;20026;-30
2022/12/01 00:56:57;;;;;;;28.48;12.95;;;2.40;99.90;;;;;;5007952;28;20092;-31
2022/12/01 00:59:23;;;;;;;31.42;14.05;;;2.40;99.90;;;;;;5010257;28;20030;-30
2022/12/01 01:01:49;;;;;;;35.10;14.13;;;2.40;99.90;;;;;;5009708;28;20030;-30
2022/12/01 01:04:14;;;;;;;30.88;13.50;;;2.40;99.90;;;;;;5009266;28;20502;-30
2022/12/01 01:06:42;;;;;;;31.02;13.75;;;2.40;99.90;;;;;;5007317;28;20491;-31
2022/12/01 01:09:08;;;;;;;25.48;12.82;;;2.40;99.90;;;;;;5005917;28;20101;-30
2022/12/01 01:11:34;;;;;;;33.45;14.23;;;2.40;99.90;;;;;;5008391;28;20030;-31
2022/12/01 01:13:59;;;;;;;30.90;12.38;;;2.40;99.90;;;;;;5006969;28;20037;-31
2022/12/01 01:16:25;;;;;;;28.33;14.30;;;2.40;99.90;;;;;;5009883;28;20349;-30
2022/12/01 01:18:51;;;;;;;28.75;14.27;;;2.40;99.90;;;;;;5007816;28;20289;-31
2022/12/01 01:21:22;;;;;;;30.15;13.40;;;2.40;99.90;;;;;;5008071;28;20034;-33
2022/12/01 01:23:49;;;;;;;30.40;12.68;;;2.40;99.90;;;;;;5009984;28;20105;-31
2022/12/01 01:26:17;;;;;;;28.60;12.93;;;2.50;99.90;;;;;;5007504;28;20026;-30
2022/12/01 01:28:43;;;;;;;36.40;13.27;;;2.50;99.90;;;;;;5008093;28;20036;-32
2022/12/01 01:31:12;;;;;;;31.25;11.98;;;2.40;99.90;;;;;;5006731;28;20042;-31
2022/12/01 01:33:38;;;;;;;28.55;10.68;;;2.40;99.90;;;;;;5008722;28;20045;-30
2022/12/01 01:36:04;;;;;;;32.20;12.52;;;2.40;99.90;;;;;;5007901;28;20042;-31
2022/12/01 01:38:30;;;;;;;26.65;12.13;;;2.40;99.90;;;;;;5008247;28;20026;-30
2022/12/01 01:40:56;;;;;;;28.42;11.93;;;2.40;99.90;;;;;;5008869;28;20030;-30
2022/12/01 01:43:44;;;;;;;24.95;12.52;;;2.40;99.90;;;;;;5004382;28;20100;-30
2022/12/01 01:46:20;;;;;;;24.65;12.98;;;2.40;99.90;;;;;;5005503;28;20052;-30
2022/12/01 01:48:59;;;;;;;27.33;11.75;;;2.40;99.90;;;;;;5006618;28;20096;-31
2022/12/01 01:51:27;;;;;;;25.23;10.90;;;2.40;99.90;;;;;;5005946;28;20044;-30
2022/12/01 01:53:55;;;;;;;24.58;12.70;;;2.30;99.90;;;;;;5008960;28;20028;-32
2022/12/01 01:56:21;;;;;;;26.98;12.13;;;2.40;99.90;;;;;;5008437;28;20105;-30
2022/12/01 01:58:48;;;;;;;26.15;12.50;;;2.40;99.90;;;;;;5006519;28;20046;-31
2022/12/01 02:01:14;;;;;;;27.60;12.88;;;2.40;99.90;;;;;;5007963;28;20124;-32
2022/12/01 02:03:41;;;;;;;24.50;11.38;;;2.40;99.90;;;;;;5009782;28;20132;-31
2022/12/01 02:06:08;;;;;;;30.17;12.73;;;2.40;99.90;;;;;;5007929;28;20041;-32
2022/12/01 02:08:35;;;;;;;30.20;12.32;;;2.40;99.90;;;;;;5005677;28;20030;-33
2022/12/01 02:11:15;;;;;;;29.08;12.55;;;2.40;99.90;;;;;;5008811;28;20026;-30
2022/12/01 02:14:05;;;;;;;31.48;13.40;;;2.40;99.90;;;;;;5008190;28;20034;-31
2022/12/01 02:16:42;;;;;;;28.45;11.65;;;2.40;99.90;;;;;;5003869;28;20117;-31
2022/12/01 02:19:32;;;;;;;31.30;13.65;;;2.40;99.90;;;;;;5008744;28;20033;-31
2022/12/01 02:22:19;;;;;;;30.40;12.75;;;2.40;99.90;;;;;;5008324;28;20034;-33
2022/12/01 02:24:50;;;;;;;27.65;11.90;;;2.40;99.90;;;;;;5007470;28;20033;-30
2022/12/01 02:27:52;;;;;;;32.47;12.23;;;2.30;99.90;;;;;;5004459;28;20391;-31
2022/12/01 02:30:47;;;;;;;21.73;11.07;;;2.30;99.90;;;;;;5006956;28;20361;-32
2022/12/01 02:33:39;;;;;;;35.15;14.38;;;2.30;99.90;;;;;;5003553;28;20046;-31
2022/12/01 02:36:32;;;;;;;34.20;14.43;;;2.30;99.90;;;;;;5003988;28;20053;-30
2022/12/01 02:39:05;;;;;;;30.35;14.88;;;2.30;99.90;;;;;;5005237;28;20160;-33
2022/12/01 02:41:43;;;;;;;33.47;14.48;;;2.30;99.90;;;;;;5007775;28;20061;-34
2022/12/01 02:47:33;;;;;;;37.17;14.45;;;2.30;99.90;;;;;;5005010;28;20631;-30
2022/12/01 02:50:01;;;;;;;32.05;14.55;;;2.30;99.90;;;;;;5009114;28;20356;-31
2022/12/01 02:52:28;;;;;;;32.83;14.95;;;2.30;99.90;;;;;;5008368;28;20038;-33
2022/12/01 02:54:55;;;;;;;38.08;13.75;;;2.30;99.90;;;;;;5007670;28;20109;-31
2022/12/01 02:57:20;;;;;;;30.50;13.35;;;2.30;99.90;;;;;;5003491;28;20025;-30
2022/12/01 02:59:50;;;;;;;30.90;14.63;;;2.30;99.90;;;;;;5007807;28;20026;-31
2022/12/01 03:02:23;;;;;;;29.33;13.55;;;2.30;99.90;;;;;;5005208;28;20128;-31
2022/12/01 03:05:22;;;;;;;33.03;14.93;;;2.30;99.90;;;;;;5006636;28;20041;-30
2022/12/01 03:08:14;;;;;;;30.30;13.23;;;2.30;99.90;;;;;;4999457;28;20137;-31
2022/12/01 03:10:53;;;;;;;29.92;12.60;;;2.30;99.90;;;;;;5002906;28;20042;-30
2022/12/01 03:13:45;;;;;;;33.85;13.20;;;2.30;99.90;;;;;;5007425;28;20034;-31
2022/12/01 03:16:36;;;;;;;31.25;14.45;;;2.30;99.90;;;;;;5005594;28;20084;-30
2022/12/01 03:19:25;;;;;;;31.17;13.18;;;2.30;99.90;;;;;;4996516;28;20050;-30
2022/12/01 03:21:58;;;;;;;34.05;13.55;;;2.30;99.90;;;;;;5005741;28;20487;-30
2022/12/01 03:24:26;;;;;;;32.15;13.95;;;2.30;99.90;;;;;;5003998;28;20129;-32
2022/12/01 03:26:56;;;;;;;33.92;15.23;;;2.30;99.90;;;;;;5007664;28;20026;-31
2022/12/01 03:29:30;;;;;;;29.83;13.23;;;2.30;99.90;;;;;;5004739;28;20030;-31
2022/12/01 03:32:04;;;;;;;25.23;11.98;;;2.40;99.90;;;;;;5004660;28;20076;-30
2022/12/01 03:34:50;;;;;;;29.85;14.77;;;2.40;99.90;;;;;;5003939;28;20057;-33
2022/12/01 03:37:26;;;;;;;28.65;12.18;;;2.40;99.90;;;;;;5002838;28;20037;-33
2022/12/01 03:39:56;;;;;;;33.85;14.23;;;2.30;99.90;;;;;;5002788;28;20030;-32
2022/12/01 03:42:26;;;;;;;31.27;13.88;;;2.40;99.90;;;;;;5007017;28;20038;-31
2022/12/01 03:44:55;;;;;;;36.30;13.32;;;2.40;99.90;;;;;;5001428;28;20018;-30
2022/12/01 03:47:29;;;;;;;32.63;15.63;;;2.40;99.90;;;;;;5007795;28;20443;-36
2022/12/01 03:49:56;;;;;;;33.17;14.25;;;2.30;99.90;;;;;;5005861;28;20026;-34
2022/12/01 03:52:27;;;;;;;35.10;15.32;;;2.30;99.90;;;;;;5006814;28;20030;-30
2022/12/01 03:55:00;;;;;;;36.90;14.43;;;2.30;99.90;;;;;;5003700;28;20127;-30
2022/12/01 03:57:32;;;;;;;30.05;14.25;;;2.30;99.90;;;;;;5003989;28;20037;-32
2022/12/01 03:59:58;;;;;;;39.85;16.33;;;2.30;99.90;;;;;;5003680;28;20184;-31
2022/12/01 04:02:26;;;;;;;30.48;13.38;;;2.30;99.90;;;;;;5007392;28;20128;-32
2022/12/01 04:04:52;;;;;;;41.47;15.70;;;2.30;99.90;;;;;;5007502;28;20403;-31
2022/12/01 04:07:19;;;;;;;34.20;13.48;;;2.30;99.90;;;;;;5007811;28;20046;-30
2022/12/01 04:09:44;;;;;;;42.72;16.10;;;2.30;99.90;;;;;;5006750;28;20534;-32
2022/12/01 04:12:28;;;;;;;35.85;14.73;;;2.30;99.90;;;;;;5004551;28;20109;-30
2022/12/01 04:15:20;;;;;;;36.75;15.73;;;2.30;99.90;;;;;;5005700;28;20080;-32
2022/12/01 04:17:46;;;;;;;37.55;15.45;;;2.30;99.90;;;;;;5002787;28;20037;-31
2022/12/01 04:20:14;;;;;;;39.88;15.23;;;2.30;99.90;;;;;;5004779;28;20033;-30
2022/12/01 04:22:40;;;;;;;36.50;15.90;;;2.30;99.90;;;;;;5006178;28;20100;-30
2022/12/01 04:25:06;;;;;;;45.88;16.38;;;2.30;99.90;;;;;;5004372;28;20034;-31
2022/12/01 04:27:33;;;;;;;47.10;18.17;;;2.30;99.90;;;;;;5007635;28;20473;-30
2022/12/01 04:29:58;;;;;;;40.20;14.48;;;2.30;99.90;;;;;;5004386;28;20547;-31
2022/12/01 04:32:24;;;;;;;41.83;16.55;;;2.30;99.90;;;;;;5005041;28;20038;-30
2022/12/01 04:34:50;;;;;;;39.08;14.40;;;2.30;99.90;;;;;;5005959;28;20039;-30
2022/12/01 04:37:16;;;;;;;43.72;16.08;;;2.30;99.90;;;;;;5004441;28;20539;-30
2022/12/01 04:39:42;;;;;;;43.63;17.27;;;2.30;99.90;;;;;;5003934;28;20041;-30
2022/12/01 04:42:08;;;;;;;42.40;16.00;;;2.30;99.90;;;;;;5001740;28;20037;-30
2022/12/01 04:44:34;;;;;;;43.30;17.40;;;2.30;99.90;;;;;;5002468;28;20030;-33
2022/12/01 04:47:00;;;;;;;44.20;17.27;;;2.30;99.90;;;;;;5005910;28;20368;-31
2022/12/01 04:49:25;;;;;;;40.25;14.82;;;2.30;99.90;;;;;;5003807;28;20021;-30
2022/12/01 04:51:51;;;;;;;42.53;17.50;;;2.30;99.90;;;;;;5004115;28;20088;-30
2022/12/01 04:54:17;;;;;;;40.92;16.33;;;2.30;99.90;;;;;;5006469;28;20068;-31
2022/12/01 04:56:42;;;;;;;44.17;17.05;;;2.30;99.90;;;;;;5004759;28;20037;-30
2022/12/01 04:59:09;;;;;;;43.30;16.75;;;2.30;99.90;;;;;;5005836;28;20078;-30
2022/12/01 05:01:34;;;;;;;39.20;15.60;;;2.30;99.90;;;;;;5003590;28;20049;-34
2022/12/01 05:04:00;;;;;;;40.15;16.10;;;2.30;99.90;;;;;;5003777;28;20080;-32
2022/12/01 05:06:27;;;;;;;44.17;17.83;;;2.30;99.90;;;;;;5004604;28;20415;-30
2022/12/01 05:08:58;;;;;;;39.72;16.42;;;2.30;99.90;;;;;;5001040;28;20030;-30
2022/12/01 05:11:25;;;;;;;38.55;15.60;;;2.30;99.90;;;;;;5007298;28;20041;-31
2022/12/01 05:13:51;;;;;;;43.20;16.58;;;2.30;99.90;;;;;;5006749;28;20033;-30
2022/12/01 05:16:23;;;;;;;40.72;15.30;;;2.30;99.90;;;;;;5011729;28;20033;-30
2022/12/01 05:18:50;;;;;;;34.60;15.00;;;2.30;99.90;;;;;;5007851;28;20032;-31
2022/12/01 05:21:17;;;;;;;33.80;14.52;;;2.30;99.90;;;;;;5008596;28;20040;-31
2022/12/01 05:23:44;;;;;;;34.78;14.45;;;2.30;99.90;;;;;;5006611;28;20038;-31
2022/12/01 05:26:10;;;;;;;37.97;15.85;;;2.30;99.90;;;;;;5009536;28;20058;-34
2022/12/01 05:28:36;;;;;;;34.88;15.18;;;2.30;99.90;;;;;;5008428;28;20550;-31
2022/12/01 05:31:02;;;;;;;41.05;16.60;;;2.30;99.90;;;;;;5005858;28;20030;-32
2022/12/01 05:33:28;;;;;;;38.17;16.35;;;2.30;99.90;;;;;;5003267;28;20030;-31
2022/12/01 05:35:54;;;;;;;33.20;15.07;;;2.30;99.90;;;;;;5021300;28;20131;-30
2022/12/01 05:38:20;;;;;;;34.58;15.07;;;2.30;99.90;;;;;;5005980;28;20043;-30
2022/12/01 05:40:53;;;;;;;32.33;13.65;;;2.30;99.90;;;;;;5008659;28;20053;-30
2022/12/01 05:43:20;;;;;;;32.22;13.20;;;2.30;99.90;;;;;;5006262;28;20018;-30
2022/12/01 05:45:46;;;;;;;37.15;15.55;;;2.40;99.90;;;;;;5008474;28;20475;-31
2022/12/01 05:48:11;;;;;;;32.13;13.18;;;2.30;99.90;;;;;;5010370;28;20026;-30
2022/12/01 05:50:38;;;;;;;34.22;15.45;;;2.30;99.90;;;;;;5005720;28;20022;-30
2022/12/01 05:53:04;;;;;;;37.22;14.52;;;2.40;99.90;;;;;;5006605;28;20521;-31
2022/12/01 05:55:33;;;;;;;30.45;14.35;;;2.40;99.90;;;;;;5004410;28;20061;-31
2022/12/01 05:57:58;;;;;;;33.88;14.85;;;2.40;99.90;;;;;;5007739;28;20379;-31
2022/12/01 06:00:24;;;;;;;34.97;15.95;;;2.40;99.90;;;;;;5002356;28;20038;-31
2022/12/01 06:02:50;;;;;;;32.88;15.05;;;2.40;99.90;;;;;;5009338;28;20466;-30
2022/12/01 06:05:15;;;;;;;36.17;16.25;;;2.30;99.90;;;;;;5004480;28;20042;-33
2022/12/01 06:07:41;;;;;;;35.83;15.70;;;2.40;99.90;;;;;;5005274;28;20466;-30
2022/12/01 06:10:08;;;;;;;30.33;14.43;;;2.40;99.90;;;;;;5006583;28;20037;-30
2022/12/01 06:12:34;;;;;;;34.13;14.85;;;2.30;99.90;;;;;;5006081;28;20065;-31
2022/12/01 06:15:00;;;;;;;39.47;15.50;;;2.40;99.90;;;;;;5006243;28;20057;-32
2022/12/01 06:17:25;;;;;;;32.08;15.05;;;2.40;99.90;;;;;;5006390;28;20026;-30
2022/12/01 06:19:51;;;;;;;34.30;13.95;;;2.40;99.90;;;;;;5004442;28;20096;-31
2022/12/01 06:22:16;;;;;;;35.67;13.93;;;2.40;99.90;;;;;;5006599;28;20129;-32
2022/12/01 06:24:42;;;;;;;28.73;13.63;;;2.40;99.90;;;;;;5005302;28;20033;-30
2022/12/01 06:27:07;;;;;;;30.95;14.10;;;2.40;99.90;;;;;;5008342;28;20037;-31
2022/12/01 06:29:33;;;;;;;32.97;14.57;;;2.40;99.90;;;;;;5005518;28;20054;-30
2022/12/01 06:31:58;;;;;;;35.13;14.48;;;2.40;99.90;;;;;;5007205;28;20026;-33
2022/12/01 06:34:24;;;;;;;32.50;13.05;;;2.40;99.90;;;;;;5008082;28;20546;-32
2022/12/01 06:36:50;;;;;;;34.17;12.88;;;2.40;99.90;;;;;;5008224;28;20057;-30
2022/12/01 06:39:16;;;;;;;38.30;13.77;;;2.40;99.90;;;;;;5008452;28;20029;-31
2022/12/01 06:41:42;;;;;;;31.55;13.52;;;2.40;99.90;;;;;;5007522;28;20033;-31
2022/12/01 06:44:08;;;;;;;34.50;15.07;;;2.50;99.90;;;;;;5004000;28;20033;-30
2022/12/01 06:46:34;;;;;;;36.10;13.98;;;2.50;99.90;;;;;;5011701;28;20029;-30
2022/12/01 06:48:59;;;;;;;34.85;15.85;;;2.50;99.90;;;;;;5003777;28;20108;-31
2022/12/01 06:51:25;;;;;;;33.70;13.90;;;2.50;99.90;;;;;;5008277;28;20101;-32
2022/12/01 06:53:55;;;;;;;31.38;15.13;;;2.50;99.90;;;;;;5020779;28;20037;-31
2022/12/01 06:56:21;;;;;;;29.45;13.50;;;2.50;99.90;;;;;;4999025;28;20592;-30
2022/12/01 06:58:49;;;;;;;31.85;14.18;;;2.50;99.90;;;;;;5005360;28;20037;-36
2022/12/01 07:01:15;;;;;;;35.70;16.43;;;2.40;99.90;;;;;;5004725;28;20046;-31
2022/12/01 07:03:41;;;;;;;37.95;15.52;;;2.50;99.90;;;;;;5020291;28;20272;-30
2022/12/01 07:06:08;;;;;;;33.08;12.95;;;2.50;99.90;;;;;;5007344;28;20046;-30
2022/12/01 07:08:34;;;;;;;41.15;13.98;;;2.50;99.90;;;;;;5002184;28;20041;-31
2022/12/01 07:11:14;;;;;;;35.47;13.90;;;2.50;99.90;;;;;;5006657;28;20503;-30
2022/12/01 07:13:40;;;;;;;34.80;16.75;;;2.50;99.90;;;;;;5001805;28;20486;-30
2022/12/01 07:16:07;;;;;;;40.50;15.20;;;2.50;99.90;;;;;;5005859;28;20034;-30
2022/12/01 07:18:33;;;;;;;36.78;16.90;;;2.50;99.90;;;;;;5007746;28;20402;-31
2022/12/01 07:21:05;;;;;;;38.63;15.68;;;2.50;99.90;;;;;;5001700;28;20057;-31
2022/12/01 07:23:32;;;;;;;29.33;13.05;;;2.50;99.90;;;;;;5002819;28;20468;-31
2022/12/01 07:26:03;;;;;;;36.20;15.65;;;2.50;99.90;;;;;;5001421;28;20464;-33
2022/12/01 07:28:29;;;;;;;32.72;13.60;;;2.50;99.90;;;;;;5005563;28;20034;-30
2022/12/01 07:31:04;;;;;;;40.35;16.17;;;2.50;99.90;;;;;;5003776;28;20049;-30
2022/12/01 07:33:30;;;;;;;30.73;12.50;;;2.50;99.90;;;;;;5006322;28;20050;-30
2022/12/01 07:35:55;;;;;;;32.83;13.63;;;2.50;99.90;;;;;;5004769;28;20065;-30
2022/12/01 07:38:21;;;;;;;37.50;15.40;;;2.60;99.90;;;;;;5007344;28;20069;-31
2022/12/01 07:40:46;;;;;;;37.53;14.27;;;2.60;99.90;;;;;;5006063;28;20040;-31
2022/12/01 07:43:12;;;;;;;37.50;15.18;;;2.60;99.90;;;;;;5003503;28;20025;-30
2022/12/01 07:45:38;;;;;;;37.97;14.38;;;2.60;99.90;;;;;;5007020;28;20033;-30
2022/12/01 07:48:03;;;;;;;31.85;14.80;;;2.60;99.90;;;;;;5006219;28;20106;-30
2022/12/01 07:50:29;;;;;;;33.38;15.57;;;2.60;99.90;;;;;;5004349;28;20509;-30
2022/12/01 07:52:54;;;;;;;38.28;15.13;;;2.60;99.90;;;;;;5004418;28;20033;-30
2022/12/01 07:55:20;;;;;;;31.98;14.63;;;2.60;99.90;;;;;;5009360;28;20033;-30
2022/12/01 07:57:45;;;;;;;40.60;17.20;;;2.60;99.90;;;;;;5021252;28;20342;-32
2022/12/01 08:00:12;;;;;;;40.83;16.30;;;2.60;99.90;;;;;;5004561;28;20480;-30
2022/12/01 08:02:37;;;;;;;29.58;14.88;;;2.60;99.90;;;;;;5004871;28;20034;-31
2022/12/01 08:05:03;;;;;;;32.72;14.68;;;2.60;99.90;;;;;;5001608;28;20068;-31
2022/12/01 08:07:29;;;;;;;31.40;13.93;;;2.70;99.90;;;;;;5006462;28;20161;-31
2022/12/01 08:09:54;;;;;;;34.20;15.35;;;2.70;99.90;;;;;;5006318;28;20026;-31
2022/12/01 08:12:20;;;;;;;33.35;15.40;;;2.70;99.90;;;;;;4997794;28;20030;-34
2022/12/01 08:14:45;;;;;;;32.28;14.18;;;2.70;99.90;;;;;;5006787;28;20049;-31
2022/12/01 08:17:11;;;;;;;33.72;14.30;;;2.70;99.90;;;;;;5008825;28;20136;-30
2022/12/01 08:19:37;;;;;;;27.27;12.93;;;2.70;99.90;;;;;;5005145;28;20022;-33
2022/12/01 08:22:02;;;;;;;30.35;14.95;;;2.80;99.90;;;;;;5004641;28;20045;-31
2022/12/01 08:24:28;;;;;;;35.05;15.20;;;2.80;99.90;;;;;;5003265;28;20564;-33
2022/12/01 08:26:53;;;;;;;34.15;14.85;;;2.80;99.90;;;;;;5024094;28;20045;-30
2022/12/01 08:29:19;;;;;;;31.23;14.55;;;2.80;99.90;;;;;;5003152;28;20109;-32
2022/12/01 08:31:44;;;;;;;33.60;14.85;;;2.80;99.90;;;;;;5002755;28;20030;-31
2022/12/01 08:34:10;;;;;;;34.95;15.93;;;2.90;99.90;;;;;;5006791;28;20094;-32
2022/12/01 08:36:36;;;;;;;30.17;13.23;;;2.90;99.90;;;;;;5003367;28;20030;-33
2022/12/01 08:39:02;;;;;;;37.30;15.20;;;2.90;99.90;;;;;;5006762;28;20492;-29
2022/12/01 08:41:28;;;;;;;36.17;13.27;;;2.90;99.90;;;;;;5003808;28;20026;-30
2022/12/01 08:43:55;;;;;;;31.70;14.73;;;2.90;99.90;;;;;;5006925;28;20088;-30
2022/12/01 08:46:21;;;;;;;32.88;15.25;;;2.90;99.90;;;;;;5003510;28;20031;-29
2022/12/01 08:48:46;;;;;;;37.78;15.13;;;2.90;99.90;;;;;;5013329;28;20119;-30
2022/12/01 08:51:14;;;;;;;33.10;14.75;;;2.90;99.90;;;;;;5008920;28;20030;-32
2022/12/01 08:53:42;;;;;;;31.35;13.70;;;2.90;99.90;;;;;;5011751;28;20498;-31
2022/12/01 08:56:35;;;;;;;28.05;12.90;;;2.90;99.90;;;;;;5004819;28;20030;-30
2022/12/01 08:59:01;;;;;;;36.97;14.40;;;2.90;99.90;;;;;;5008464;28;20037;-30
2022/12/01 09:01:28;;;;;;;32.72;15.23;;;2.90;99.90;;;;;;5022446;28;20026;-30
2022/12/01 09:04:06;;;;;;;33.75;14.63;;;2.90;99.90;;;;;;5009162;28;20120;-31
2022/12/01 09:06:38;;;;;;;33.10;13.38;;;2.90;99.90;;;;;;5008020;28;20317;-31
2022/12/01 09:09:04;;;;;;;35.92;15.20;;;2.90;99.90;;;;;;5008456;28;20022;-31
2022/12/01 09:11:29;;;;;;;34.10;15.38;;;2.90;99.90;;;;;;5008488;28;20018;-30
2022/12/01 09:13:55;;;;;;;35.97;16.08;;;2.90;99.90;;;;;;5010284;28;20416;-30
2022/12/01 09:16:20;;;;;;;34.15;14.15;;;2.90;99.90;;;;;;5010960;28;20034;-30
2022/12/01 09:18:47;;;;;;;36.70;13.93;;;2.90;99.90;;;;;;5011040;28;20029;-33
2022/12/01 09:21:21;;;;;;;40.53;15.23;;;2.90;99.90;;;;;;5010861;28;20021;-30
2022/12/01 09:23:48;;;;;;;32.58;15.30;;;2.90;99.90;;;;;;5009356;28;20128;-31
2022/12/01 09:26:17;;;;;;;34.30;15.15;;;2.90;99.90;;;;;;5006986;28;20037;-30
2022/12/01 09:28:48;;;;;;;34.97;13.60;;;2.90;99.90;;;;;;5010530;28;20025;-30
2022/12/01 09:31:15;;;;;;;41.17;16.50;;;3.00;99.90;;;;;;5008149;28;20513;-33
2022/12/01 09:33:41;;;;;;;41.70;17.02;;;3.00;99.90;;;;;;5008370;28;20022;-30
2022/12/01 09:36:08;;;;;;;41.30;16.80;;;2.90;99.90;;;;;;5001964;28;20120;-31
2022/12/01 09:38:35;;;;;;;33.25;14.05;;;2.90;99.90;;;;;;5012148;28;20171;-34
2022/12/01 09:41:04;;;;;;;40.50;16.40;;;3.00;99.90;;;;;;5008026;28;20034;-30
2022/12/01 09:43:46;;;;;;;43.88;16.77;;;3.00;99.90;;;;;;5011126;28;20084;-31
2022/12/01 09:46:26;;;;;;;36.15;15.50;;;3.00;99.90;;;;;;5009640;28;20025;-30
2022/12/01 09:48:54;;;;;;;41.17;15.98;;;3.00;99.90;;;;;;5000129;28;20021;-35
2022/12/01 09:51:21;;;;;;;;;;;3.00;99.90;;;;;;5001747;28;20052;-30
2022/12/01 09:53:54;;;;;;;34.05;14.73;;;3.00;99.90;;;;;;5010588;28;19945;-30
2022/12/01 09:56:21;;;;;;;32.63;14.45;;;3.00;99.90;;;;;;5004800;28;20037;-29
2022/12/01 09:58:55;;;;;;;33.00;14.85;;;3.00;99.90;;;;;;5009296;28;20057;-32
2022/12/01 10:01:29;;;;;;;38.13;15.07;;;3.00;99.90;;;;;;5009977;28;20041;-30
2022/12/01 10:03:59;;;;;;;36.53;14.18;;;3.00;99.90;;;;;;5005672;28;20037;-31
2022/12/01 10:07:05;;;;;;;35.00;14.65;;;3.00;99.90;;;;;;5004246;28;20100;-32
2022/12/01 10:09:57;;;;;;;38.22;14.68;;;3.00;99.90;;;;;;5003601;28;20022;-30
2022/12/01 10:12:26;;;;;;;37.45;13.93;;;2.90;99.90;;;;;;5008488;28;20120;-30
2022/12/01 10:15:27;;;;;;;33.83;14.45;;;2.90;99.90;;;;;;5008412;28;20072;-31
2022/12/01 10:18:27;;;;;;;38.40;16.45;;;2.90;99.90;;;;;;4971855;28;20037;-33
2022/12/01 10:21:17;;;;;;;43.38;17.90;;;3.00;99.90;;;;;;4984706;28;20026;-30
2022/12/01 10:24:21;;;;;;;29.70;12.15;;;2.90;99.90;;;;;;5007742;28;20076;-30
2022/12/01 10:27:20;;;;;;;32.85;14.50;;;2.90;99.90;;;;;;5005128;28;20050;-32
2022/12/01 10:29:50;;;;;;;37.00;14.50;;;3.00;99.90;;;;;;5002761;28;20503;-31
2022/12/01 10:32:50;;;;;;;33.97;13.95;;;3.00;99.90;;;;;;5007125;28;20986;-31
2022/12/01 10:35:18;;;;;;;34.30;13.57;;;3.00;99.90;;;;;;5008294;28;20534;-31
2022/12/01 10:37:46;;;;;;;40.60;16.40;;;3.00;99.90;;;;;;5007831;28;20030;-30
2022/12/01 10:40:13;;;;;;;36.17;15.63;;;3.10;99.90;;;;;;5008417;28;20037;-30
2022/12/01 10:42:45;;;;;;;37.97;15.70;;;3.10;99.90;;;;;;5005373;28;20030;-34
2022/12/01 10:45:20;;;;;;;39.97;16.65;;;3.10;99.90;;;;;;5010076;28;20021;-33
2022/12/01 10:48:11;;;;;;;29.90;12.98;;;3.10;99.90;;;;;;5008811;28;20025;-39
2022/12/01 10:50:38;;;;;;;33.80;16.13;;;3.10;99.90;;;;;;5006763;28;20371;-31
2022/12/01 10:53:03;;;;;;;34.95;13.98;;;3.10;99.90;;;;;;5009880;28;20486;-30
2022/12/01 10:55:36;;;;;;;39.92;15.02;;;3.20;99.90;;;;;;5005161;28;20027;-31
2022/12/01 10:58:12;;;;;;;37.53;15.75;;;3.20;99.90;;;;;;5008125;28;20034;-36
2022/12/01 11:00:40;;;;;;;36.10;16.00;;;3.20;99.90;;;;;;5001750;28;20081;-31
2022/12/01 11:03:05;;;;;;;35.40;15.00;;;3.20;99.90;;;;;;5003551;28;20022;-33
2022/12/01 11:05:41;;;;;;;34.75;15.45;;;3.20;99.90;;;;;;5004633;28;20069;-31
2022/12/01 11:08:37;;;;;;;38.20;16.17;;;3.10;99.90;;;;;;5006057;28;20034;-30
2022/12/01 11:11:04;;;;;;;34.97;14.90;;;3.20;99.90;;;;;;5000528;28;20069;-33
2022/12/01 11:13:34;;;;;;;43.05;16.17;;;3.30;99.90;;;;;;4999882;28;20100;-36
2022/12/01 11:16:04;;;;;;;36.92;17.17;;;3.30;99.90;;;;;;5002007;28;20041;-31
2022/12/01 11:18:35;;;;;;;41.70;15.65;;;3.30;99.90;;;;;;5005991;28;20060;-32
2022/12/01 11:21:24;;;;;;;36.30;14.85;;;3.30;99.90;;;;;;5002810;28;20443;-30
2022/12/01 11:23:52;;;;;;;42.80;15.98;;;3.30;99.90;;;;;;5003395;28;21722;-31
2022/12/01 11:26:25;;;;;;;40.78;15.75;;;3.30;99.90;;;;;;5001179;28;20569;-31
2022/12/01 11:29:03;;;;;;;33.63;14.60;;;3.30;99.90;;;;;;5003853;28;20506;-32
2022/12/01 11:31:39;;;;;;;30.60;14.02;;;3.30;99.90;;;;;;5001467;28;20387;-30
2022/12/01 11:34:20;;;;;;;29.58;13.93;;;3.40;99.90;;;;;;5006826;28;20060;-31
2022/12/01 11:36:51;;;;;;;35.95;16.60;;;3.40;99.90;;;;;;5004349;28;20030;-30
2022/12/01 11:39:38;;;;;;;33.25;15.30;;;3.40;99.90;;;;;;5007565;28;20074;-34
2022/12/01 11:42:23;;;;;;;36.15;16.45;;;3.40;99.90;;;;;;5008074;28;20046;-32
2022/12/01 11:44:53;;;;;;;32.63;14.70;;;3.40;99.90;;;;;;5008931;28;20061;-32
2022/12/01 11:47:21;;;;;;;36.95;16.15;;;3.40;99.90;;;;;;5007688;28;20034;-30
2022/12/01 11:49:51;;;;;;;;;;;3.40;99.90;;;;;;5006023;28;20030;-31
2022/12/01 11:52:32;;;;;;;31.92;13.65;;;3.40;99.90;;;;;;5006326;28;20675;-31
2022/12/01 11:55:14;;;;;;;33.90;14.25;;;3.40;99.90;;;;;;5004122;28;20391;-33
2022/12/01 11:57:42;;;;;;;32.65;15.18;;;3.40;99.90;;;;;;5008130;28;20383;-31
2022/12/01 12:00:48;;;;;;;34.47;16.17;;;3.40;99.90;;;;;;5009705;28;20471;-31
2022/12/01 12:03:37;;;;;;;30.15;14.98;;;3.50;99.90;;;;;;5005511;28;20049;-33
2022/12/01 12:06:20;;;;;;;35.47;15.93;;;3.50;99.90;;;;;;5008721;28;20049;-30
2022/12/01 12:09:16;;;;;;;33.95;14.50;;;3.50;99.90;;;;;;5006115;28;20057;-33
2022/12/01 12:12:04;;;;;;;27.50;13.88;;;3.50;99.90;;;;;;5005002;28;20438;-31
2022/12/01 12:14:29;;;;;;;;;;;3.50;99.90;;;;;;5001097;28;20128;-32
2022/12/01 12:16:55;;;;;;;31.83;14.00;;;3.50;99.90;;;;;;5004345;28;19999;-32
2022/12/01 12:19:44;;;;;;;28.92;13.48;;;3.60;99.90;;;;;;5006331;28;20080;-31
2022/12/01 12:22:39;;;;;;;32.47;15.05;;;3.60;99.90;;;;;;5005339;28;20037;-31
2022/12/01 12:25:27;;;;;;;33.25;13.52;;;3.60;99.90;;;;;;4979386;28;20578;-30
2022/12/01 12:28:19;;;;;;;30.85;13.68;;;3.60;99.90;;;;;;5008427;28;20029;-30
2022/12/01 12:30:55;;;;;;;38.95;15.15;;;3.60;99.90;;;;;;5011403;28;20117;-34
2022/12/01 12:33:21;;;;;;;30.58;14.98;;;3.60;99.90;;;;;;5004741;28;20032;-32
2022/12/01 12:36:15;;;;;;;29.27;13.77;;;3.60;99.90;;;;;;5010968;28;20025;-32
2022/12/01 12:38:57;;;;;;;23.77;11.95;;;3.60;99.90;;;;;;5005422;28;20030;-30
2022/12/01 12:41:43;;;;;;;34.03;14.43;;;3.50;99.90;;;;;;5010448;28;20045;-30
2022/12/01 12:44:36;;;;;;;33.85;14.02;;;3.60;99.90;;;;;;5006271;28;20049;-30
2022/12/01 12:47:23;;;;;;;23.60;12.45;;;3.60;99.90;;;;;;5008420;28;20053;-31
2022/12/01 12:50:18;;;;;;;29.67;13.30;;;3.60;99.90;;;;;;5005264;28;20357;-32
2022/12/01 12:52:50;;;;;;;28.88;12.93;;;3.70;99.90;;;;;;5008271;28;20072;-31
2022/12/01 12:55:29;;;;;;;29.33;14.20;;;3.60;99.90;;;;;;5006789;28;20042;-30
2022/12/01 12:58:06;;;;;;;29.17;14.25;;;3.70;99.90;;;;;;5010425;28;20034;-31
2022/12/01 13:00:33;;;;;;;33.17;14.15;;;3.70;99.90;;;;;;5009064;28;20049;-32
2022/12/01 13:03:25;;;;;;;27.75;14.63;;;3.70;99.90;;;;;;5011041;28;20115;-31